METAR OBSERVATIONS
Looking Back 6 hours

  • KPBF 300853Z AUTO 23003KT 10SM CLR 12/08 A3001 RMK AO2 SLP161 T01170083 56003 =
  • KPBF 300753Z AUTO 00000KT 10SM CLR 11/09 A3002 RMK AO2 SLP162 T01110089 =
  • KPBF 300653Z AUTO 00000KT 10SM CLR 12/08 A3002 RMK AO2 SLP163 T01170083 =
  • KPBF 300553Z AUTO 00000KT 10SM CLR 12/09 A3002 RMK AO2 SLP164 T01220089 10194 20122 402330083 56004 =
  • KPBF 300453Z AUTO 24004KT 10SM CLR 13/09 A3002 RMK AO2 SLP165 T01330089 =
  • KPBF 300353Z AUTO 23004KT 10SM CLR 13/09 A3003 RMK AO2 SLP166 T01280094 =
    ________________________________________